Time;durP1;ratioP1;P1;durP2;ratioP2;P2;SDS_P1;SDS_P2;PMS_P1;PMS_P2;Temp;Humidity;BMP_temperature;BMP_pressure;BME280_temperature;BME280_humidity;BME280_pressure;Samples;Min_cycle;Max_cycle;Signal;HPM_P1;HPM_P2
2023/07/15 00:01:02;;;;;;;2.80;2.60;;;24.50;50.90;;;;;;4976202;28;20222;-53
2023/07/15 00:03:29;;;;;;;3.40;2.65;;;24.50;51.10;;;;;;4977781;28;20182;-53
2023/07/15 00:05:57;;;;;;;3.08;2.50;;;24.50;51.10;;;;;;4976160;28;20209;-52
2023/07/15 00:08:25;;;;;;;4.45;2.53;;;24.50;51.10;;;;;;4977489;28;20196;-53
2023/07/15 00:10:55;;;;;;;3.00;2.80;;;24.50;51.00;;;;;;4976082;28;20224;-53
2023/07/15 00:13:22;;;;;;;3.08;2.78;;;24.50;51.10;;;;;;4977575;28;20631;-53
2023/07/15 00:15:53;;;;;;;2.83;2.63;;;24.40;51.20;;;;;;4975952;28;20268;-53
2023/07/15 00:18:21;;;;;;;4.50;2.55;;;24.50;51.20;;;;;;4976022;28;20237;-52
2023/07/15 00:20:48;;;;;;;3.10;2.70;;;24.40;51.20;;;;;;4977145;28;20230;-53
2023/07/15 00:23:18;;;;;;;2.53;2.33;;;24.40;51.10;;;;;;4977621;28;20273;-52
2023/07/15 00:25:45;;;;;;;3.25;2.80;;;24.40;51.80;;;;;;4976952;28;20205;-53
2023/07/15 00:28:14;;;;;;;2.67;2.47;;;24.40;51.10;;;;;;4977084;28;20187;-53
2023/07/15 00:30:41;;;;;;;2.58;2.38;;;24.40;51.10;;;;;;4975627;28;20777;-53
2023/07/15 00:33:16;;;;;;;2.72;2.53;;;24.40;51.20;;;;;;4975996;28;20658;-53
2023/07/15 00:35:45;;;;;;;2.80;2.60;;;24.40;51.20;;;;;;4976878;28;20209;-53
2023/07/15 00:38:12;;;;;;;2.65;2.45;;;24.40;51.20;;;;;;4975554;28;20680;-53
2023/07/15 00:40:40;;;;;;;2.92;2.65;;;24.40;51.30;;;;;;4975778;28;20789;-53
2023/07/15 00:43:45;;;;;;;3.08;2.78;;;24.40;51.20;;;;;;4975487;28;20202;-52
2023/07/15 00:46:31;;;;;;;2.97;2.72;;;24.30;51.30;;;;;;4975421;28;20201;-53
2023/07/15 00:49:02;;;;;;;3.03;2.67;;;24.30;51.40;;;;;;4976895;28;20234;-53
2023/07/15 00:51:29;;;;;;;2.78;2.53;;;24.30;51.40;;;;;;4975379;28;20206;-52
2023/07/15 00:53:56;;;;;;;2.47;2.22;;;24.30;51.40;;;;;;4975266;28;20617;-53
2023/07/15 00:56:24;;;;;;;2.83;2.40;;;24.30;51.30;;;;;;4975227;28;20253;-53
2023/07/15 00:58:50;;;;;;;3.08;2.60;;;24.20;51.40;;;;;;4975226;28;20190;-53
2023/07/15 01:01:18;;;;;;;2.80;2.60;;;24.30;51.40;;;;;;4975114;28;20226;-53
2023/07/15 01:03:46;;;;;;;2.80;2.60;;;24.30;51.60;;;;;;4976364;28;20201;-53
2023/07/15 01:06:14;;;;;;;3.05;2.53;;;24.30;51.50;;;;;;4976355;28;20269;-53
2023/07/15 01:08:41;;;;;;;4.63;2.40;;;24.20;51.50;;;;;;4976324;28;20264;-53
2023/07/15 01:11:07;;;;;;;3.97;2.35;;;24.20;51.60;;;;;;4975244;28;20674;-53
2023/07/15 01:13:35;;;;;;;2.70;2.50;;;24.20;51.50;;;;;;4975215;28;20625;-53
2023/07/15 01:16:02;;;;;;;2.42;2.22;;;24.20;51.60;;;;;;4974840;28;20221;-53
2023/07/15 01:18:29;;;;;;;3.15;2.85;;;24.20;51.70;;;;;;4976064;28;20570;-53
2023/07/15 01:21:00;;;;;;;2.80;2.58;;;24.20;51.60;;;;;;4974808;28;20224;-53
2023/07/15 01:23:30;;;;;;;3.42;2.70;;;24.20;51.70;;;;;;4974809;28;20198;-53
2023/07/15 01:25:57;;;;;;;3.10;2.80;;;24.20;51.70;;;;;;4974811;28;20257;-53
2023/07/15 01:28:24;;;;;;;2.88;2.67;;;24.20;51.70;;;;;;4974744;28;20625;-53
2023/07/15 01:30:51;;;;;;;2.78;2.58;;;24.10;51.70;;;;;;4975835;28;20206;-53
2023/07/15 01:33:19;;;;;;;2.80;2.60;;;24.10;52.30;;;;;;4976123;28;20190;-53
2023/07/15 01:35:47;;;;;;;3.10;2.77;;;24.10;51.70;;;;;;4974457;28;20198;-53
2023/07/15 01:38:14;;;;;;;3.13;2.40;;;24.10;51.70;;;;;;4974544;28;20204;-53
2023/07/15 01:40:43;;;;;;;2.90;2.45;;;24.10;51.80;;;;;;4974421;28;20229;-53
2023/07/15 01:43:10;;;;;;;2.92;2.63;;;24.10;51.80;;;;;;4974371;28;20206;-53
2023/07/15 01:45:39;;;;;;;2.70;2.50;;;24.10;51.80;;;;;;4974365;28;20284;-53
2023/07/15 01:48:07;;;;;;;3.10;2.50;;;24.00;51.80;;;;;;4974335;28;20194;-53
2023/07/15 01:50:34;;;;;;;3.20;2.67;;;24.00;51.80;;;;;;4974192;28;20233;-53
2023/07/15 01:53:02;;;;;;;3.05;2.58;;;24.00;51.90;;;;;;4975681;28;20197;-53
2023/07/15 01:55:28;;;;;;;3.00;2.55;;;24.00;51.90;;;;;;4975556;28;20189;-53
2023/07/15 01:57:57;;;;;;;3.60;2.67;;;24.00;51.90;;;;;;4975600;28;20202;-53
2023/07/15 02:00:24;;;;;;;2.58;2.38;;;24.00;51.90;;;;;;4974726;28;20221;-53
2023/07/15 02:02:51;;;;;;;2.60;2.40;;;24.00;52.00;;;;;;4974064;28;20293;-53
2023/07/15 02:05:19;;;;;;;3.25;2.92;;;24.00;52.00;;;;;;4974916;28;20681;-53
2023/07/15 02:07:49;;;;;;;3.08;2.60;;;24.00;51.90;;;;;;4973976;28;20214;-53
2023/07/15 02:10:17;;;;;;;3.40;2.72;;;24.00;52.00;;;;;;4973818;28;20228;-53
2023/07/15 02:12:44;;;;;;;2.70;2.50;;;23.90;52.00;;;;;;4973857;28;20209;-53
2023/07/15 02:15:13;;;;;;;3.30;3.03;;;23.90;52.50;;;;;;4973788;28;20198;-53
2023/07/15 02:17:40;;;;;;;2.85;2.40;;;23.90;52.10;;;;;;4973724;28;20222;-53
2023/07/15 02:20:12;;;;;;;3.08;2.78;;;23.90;52.10;;;;;;4973636;28;20260;-53
2023/07/15 02:22:39;;;;;;;3.35;2.80;;;23.80;52.00;;;;;;4975005;28;20182;-53
2023/07/15 02:25:06;;;;;;;2.78;2.42;;;23.90;52.00;;;;;;4973708;28;20194;-53
2023/07/15 02:27:35;;;;;;;3.60;2.80;;;23.80;52.00;;;;;;4974897;28;20186;-53
2023/07/15 02:30:06;;;;;;;2.75;2.40;;;23.80;52.10;;;;;;4975313;28;20220;-53
2023/07/15 02:32:39;;;;;;;2.58;2.38;;;23.80;52.20;;;;;;4973673;28;20229;-53
2023/07/15 02:35:10;;;;;;;4.28;2.53;;;23.80;52.20;;;;;;4973569;28;20209;-53
2023/07/15 02:37:38;;;;;;;2.60;2.38;;;23.80;52.10;;;;;;4973546;28;20237;-53
2023/07/15 02:40:06;;;;;;;2.80;2.40;;;23.80;52.20;;;;;;4973436;28;20312;-53
2023/07/15 02:42:34;;;;;;;2.42;2.22;;;23.80;52.20;;;;;;4974693;28;20202;-53
2023/07/15 02:45:03;;;;;;;3.30;2.60;;;23.80;52.30;;;;;;4974658;28;20202;-53
2023/07/15 02:47:31;;;;;;;3.08;2.40;;;23.80;53.00;;;;;;4973390;28;20194;-53
2023/07/15 02:50:02;;;;;;;2.67;2.47;;;23.80;52.40;;;;;;4974589;28;20265;-53
2023/07/15 02:52:30;;;;;;;3.03;2.60;;;23.80;52.40;;;;;;4973438;28;20217;-53
2023/07/15 02:54:57;;;;;;;2.50;2.30;;;23.80;52.50;;;;;;4973312;28;20194;-53
2023/07/15 02:57:24;;;;;;;2.75;2.55;;;23.70;52.50;;;;;;4973238;28;20225;-53
2023/07/15 02:59:52;;;;;;;2.67;2.38;;;23.70;52.50;;;;;;4974564;28;20280;-53
2023/07/15 03:02:20;;;;;;;3.28;2.42;;;23.70;52.40;;;;;;4973285;28;20647;-53
2023/07/15 03:04:47;;;;;;;2.42;2.22;;;23.70;52.50;;;;;;4973561;28;20213;-53
2023/07/15 03:07:16;;;;;;;2.60;2.40;;;23.70;52.50;;;;;;4974820;28;20194;-53
2023/07/15 03:09:43;;;;;;;3.13;2.40;;;23.70;52.60;;;;;;4973114;28;20724;-53
2023/07/15 03:12:11;;;;;;;2.80;2.50;;;23.70;52.70;;;;;;4974477;28;20226;-53
2023/07/15 03:14:38;;;;;;;3.17;2.42;;;23.70;52.90;;;;;;4974438;28;20681;-53
2023/07/15 03:17:05;;;;;;;2.75;2.55;;;23.70;52.90;;;;;;4975785;28;20206;-53
2023/07/15 03:19:32;;;;;;;3.00;2.70;;;23.70;53.00;;;;;;4976957;28;20218;-53
2023/07/15 03:21:59;;;;;;;2.88;2.50;;;23.70;52.90;;;;;;4978562;28;20188;-53
2023/07/15 03:24:29;;;;;;;2.55;2.35;;;23.70;53.50;;;;;;4977007;28;20198;-53
2023/07/15 03:26:55;;;;;;;2.63;2.40;;;23.70;52.90;;;;;;4976899;28;20195;-53
2023/07/15 03:29:23;;;;;;;2.88;2.67;;;23.80;52.90;;;;;;4976781;28;20305;-53
2023/07/15 03:31:51;;;;;;;2.72;2.50;;;23.80;52.80;;;;;;4976737;28;20320;-53
2023/07/15 03:34:19;;;;;;;2.70;2.50;;;23.80;52.90;;;;;;4977999;28;20214;-53
2023/07/15 03:36:46;;;;;;;2.90;2.70;;;23.80;52.70;;;;;;4976620;28;20308;-53
2023/07/15 03:39:13;;;;;;;3.42;2.63;;;23.80;52.70;;;;;;4977856;28;20182;-53
2023/07/15 03:41:42;;;;;;;2.90;2.60;;;23.80;52.80;;;;;;4978492;28;20198;-53
2023/07/15 03:44:09;;;;;;;2.80;2.50;;;23.90;52.80;;;;;;4976642;28;20226;-53
2023/07/15 03:46:37;;;;;;;3.03;2.50;;;23.80;52.70;;;;;;4977818;28;20190;-53
2023/07/15 03:49:03;;;;;;;2.58;2.38;;;23.90;52.90;;;;;;4976428;28;20212;-53
2023/07/15 03:51:30;;;;;;;2.75;2.55;;;23.80;52.80;;;;;;4976458;28;20194;-53
2023/07/15 03:53:57;;;;;;;3.15;2.35;;;23.80;52.80;;;;;;4977648;28;20192;-53
2023/07/15 03:56:24;;;;;;;3.13;2.83;;;23.80;52.90;;;;;;4977785;28;20283;-53
2023/07/15 03:58:53;;;;;;;3.00;2.70;;;23.80;52.90;;;;;;4977442;28;20750;-53
2023/07/15 04:01:21;;;;;;;2.80;2.60;;;23.80;52.90;;;;;;4977453;28;20210;-53
2023/07/15 04:03:48;;;;;;;4.07;2.63;;;23.80;52.90;;;;;;4977441;28;20190;-53
2023/07/15 04:06:15;;;;;;;2.80;2.40;;;23.80;53.00;;;;;;4976177;28;20677;-53
2023/07/15 04:08:41;;;;;;;3.70;2.83;;;23.80;52.90;;;;;;4977378;28;20196;-53
2023/07/15 04:11:09;;;;;;;2.95;2.67;;;23.80;53.00;;;;;;4976048;28;20210;-53
2023/07/15 04:13:37;;;;;;;3.22;2.40;;;23.80;52.90;;;;;;4977268;28;20204;-53
2023/07/15 04:16:05;;;;;;;2.83;2.53;;;23.80;52.90;;;;;;4976000;28;20284;-53
2023/07/15 04:18:33;;;;;;;2.70;2.50;;;23.80;53.10;;;;;;4975698;28;20634;-53
2023/07/15 04:21:00;;;;;;;3.28;2.60;;;23.80;52.90;;;;;;4977333;28;20221;-53
2023/07/15 04:23:27;;;;;;;3.35;2.63;;;23.80;52.90;;;;;;4977162;28;20190;-53
2023/07/15 04:25:54;;;;;;;2.35;2.15;;;23.80;53.00;;;;;;4977372;28;20277;-53
2023/07/15 04:28:21;;;;;;;2.60;2.40;;;23.80;53.00;;;;;;4976595;28;20221;-53
2023/07/15 04:30:48;;;;;;;2.63;2.45;;;23.80;53.00;;;;;;4977000;28;20217;-53
2023/07/15 04:33:17;;;;;;;2.95;2.50;;;23.80;53.00;;;;;;4976986;28;20277;-53
2023/07/15 04:35:44;;;;;;;3.03;2.75;;;23.80;52.90;;;;;;4975601;28;20202;-53
2023/07/15 04:38:12;;;;;;;2.97;2.63;;;23.80;53.00;;;;;;4976877;28;20237;-53
2023/07/15 04:40:39;;;;;;;4.25;2.60;;;23.80;53.00;;;;;;4975829;28;20214;-53
2023/07/15 04:43:06;;;;;;;2.80;2.60;;;23.80;53.00;;;;;;4976770;28;20194;-53
2023/07/15 04:45:33;;;;;;;3.00;2.70;;;23.80;53.10;;;;;;4976699;28;20655;-53
2023/07/15 04:48:00;;;;;;;2.85;2.65;;;23.80;53.20;;;;;;4977226;28;20277;-53
2023/07/15 04:50:29;;;;;;;3.13;2.53;;;23.80;53.20;;;;;;4976867;28;20217;-53
2023/07/15 04:52:56;;;;;;;2.92;2.72;;;24.00;53.30;;;;;;4975335;28;20244;-53
2023/07/15 04:55:23;;;;;;;3.42;2.60;;;24.00;53.00;;;;;;4976474;28;20202;-54
2023/07/15 04:57:51;;;;;;;2.70;2.50;;;24.20;52.90;;;;;;4975241;28;20214;-53
2023/07/15 05:00:20;;;;;;;2.90;2.63;;;24.40;52.80;;;;;;4976693;28;20613;-53
2023/07/15 05:02:49;;;;;;;3.25;2.70;;;24.60;52.50;;;;;;4991269;28;20198;-53
2023/07/15 05:05:16;;;;;;;2.53;2.38;;;24.70;52.10;;;;;;4976383;28;20194;-53
2023/07/15 05:07:44;;;;;;;2.78;2.45;;;24.90;51.80;;;;;;4975099;28;20202;-53
2023/07/15 05:10:11;;;;;;;3.20;2.90;;;25.10;51.50;;;;;;4975203;28;20388;-53
2023/07/15 05:12:39;;;;;;;2.92;2.53;;;25.20;51.10;;;;;;4976274;28;20562;-53
2023/07/15 05:15:07;;;;;;;2.88;2.67;;;25.40;51.40;;;;;;4976143;28;20198;-53
2023/07/15 05:17:34;;;;;;;2.78;2.58;;;25.50;50.60;;;;;;4974807;28;20214;-53
2023/07/15 05:20:03;;;;;;;3.05;2.83;;;25.60;50.10;;;;;;4976143;28;20579;-53
2023/07/15 05:22:29;;;;;;;2.97;2.78;;;25.80;50.10;;;;;;4974807;28;20198;-53
2023/07/15 05:24:58;;;;;;;2.83;2.63;;;25.90;49.90;;;;;;4976025;28;20190;-53
2023/07/15 05:27:25;;;;;;;3.90;2.80;;;26.00;49.60;;;;;;4976301;28;20190;-53
2023/07/15 05:29:52;;;;;;;4.97;2.83;;;26.10;49.40;;;;;;4974730;28;20218;-53
2023/07/15 05:32:20;;;;;;;2.95;2.70;;;26.20;49.10;;;;;;4975158;28;20223;-54
2023/07/15 05:34:47;;;;;;;3.25;2.95;;;26.20;48.90;;;;;;4988087;28;20191;-53
2023/07/15 05:37:14;;;;;;;3.80;2.83;;;26.40;48.70;;;;;;4982305;28;20273;-54
2023/07/15 05:39:42;;;;;;;4.43;2.70;;;26.40;48.40;;;;;;4975542;28;20272;-53
2023/07/15 05:42:10;;;;;;;2.92;2.72;;;26.50;48.20;;;;;;4975555;28;20621;-53
2023/07/15 05:44:37;;;;;;;3.00;2.70;;;26.60;48.70;;;;;;4974440;28;20198;-53
2023/07/15 05:47:04;;;;;;;2.80;2.60;;;26.70;48.10;;;;;;4974390;28;20198;-53
2023/07/15 05:49:31;;;;;;;3.00;2.80;;;26.70;48.00;;;;;;4975695;28;20583;-53
2023/07/15 05:51:58;;;;;;;2.72;2.53;;;26.80;47.80;;;;;;4974517;28;20284;-53
2023/07/15 05:54:25;;;;;;;4.63;2.60;;;26.90;47.70;;;;;;4986062;23;20264;-54
2023/07/15 05:56:52;;;;;;;2.53;2.33;;;26.90;47.50;;;;;;5014114;28;20214;-53
2023/07/15 05:59:21;;;;;;;3.05;2.78;;;27.00;47.50;;;;;;4996621;28;20243;-53
2023/07/15 06:01:48;;;;;;;2.88;2.53;;;27.10;47.40;;;;;;5014328;28;20246;-53
2023/07/15 06:04:15;;;;;;;2.78;2.58;;;27.20;47.30;;;;;;5014362;28;20192;-54
2023/07/15 06:06:42;;;;;;;3.15;2.80;;;27.30;47.00;;;;;;4996692;28;20248;-54
2023/07/15 06:09:09;;;;;;;2.60;2.40;;;27.30;46.80;;;;;;5014194;28;20191;-54
2023/07/15 06:11:36;;;;;;;2.40;2.20;;;27.40;46.70;;;;;;4996542;28;20207;-54
2023/07/15 06:14:04;;;;;;;2.80;2.60;;;27.50;46.30;;;;;;5014390;28;20196;-53
2023/07/15 06:16:32;;;;;;;4.88;2.70;;;27.60;46.10;;;;;;4996777;28;20231;-54
2023/07/15 06:18:59;;;;;;;3.08;2.58;;;27.70;45.80;;;;;;5014124;28;20208;-53
2023/07/15 06:21:27;;;;;;;2.95;2.72;;;27.80;45.60;;;;;;5014021;28;20195;-54
2023/07/15 06:23:54;;;;;;;3.20;2.70;;;27.90;45.50;;;;;;4996344;28;20204;-54
2023/07/15 06:26:21;;;;;;;3.35;2.63;;;27.90;45.20;;;;;;4996299;28;20196;-54
2023/07/15 06:28:48;;;;;;;2.83;2.60;;;28.00;45.10;;;;;;4996304;28;20196;-54
2023/07/15 06:31:15;;;;;;;2.75;2.53;;;28.10;44.90;;;;;;4997472;28;20223;-54
2023/07/15 06:33:44;;;;;;;2.90;2.60;;;28.10;44.70;;;;;;5014057;28;20215;-54
2023/07/15 06:36:11;;;;;;;2.75;2.50;;;28.20;44.60;;;;;;5014614;28;20519;-53
2023/07/15 06:38:38;;;;;;;2.80;2.60;;;28.30;44.40;;;;;;4996152;28;20219;-54
2023/07/15 06:41:05;;;;;;;2.85;2.65;;;28.30;44.20;;;;;;5013806;28;20653;-54
2023/07/15 06:43:32;;;;;;;2.53;2.33;;;28.30;44.00;;;;;;4996149;28;20200;-54
2023/07/15 06:45:59;;;;;;;3.00;2.70;;;28.40;43.90;;;;;;5013715;28;20199;-54
2023/07/15 06:48:26;;;;;;;2.83;2.50;;;28.50;43.80;;;;;;5013942;28;20222;-54
2023/07/15 06:50:55;;;;;;;2.78;2.53;;;28.50;44.20;;;;;;5013641;28;20580;-54
2023/07/15 06:53:22;;;;;;;2.95;2.65;;;28.60;43.50;;;;;;4995932;28;20211;-54
2023/07/15 06:55:51;;;;;;;2.97;2.65;;;28.60;43.30;;;;;;5013757;28;20206;-54
2023/07/15 06:58:18;;;;;;;2.67;2.38;;;28.70;43.20;;;;;;4995925;28;20219;-54
2023/07/15 07:00:45;;;;;;;2.47;2.28;;;28.70;43.00;;;;;;5013529;28;20208;-54
2023/07/15 07:03:12;;;;;;;3.95;2.42;;;28.70;43.00;;;;;;5013493;28;20203;-54
2023/07/15 07:05:39;;;;;;;2.58;2.38;;;28.80;43.00;;;;;;4995905;28;20203;-54
2023/07/15 07:08:09;;;;;;;2.60;2.40;;;28.80;42.90;;;;;;5013480;28;20184;-54
2023/07/15 07:10:36;;;;;;;2.97;2.45;;;28.90;42.80;;;;;;4995780;28;20588;-54
2023/07/15 07:13:04;;;;;;;2.78;2.50;;;29.00;42.60;;;;;;5013457;28;20188;-54
2023/07/15 07:15:31;;;;;;;2.67;2.47;;;29.00;42.50;;;;;;5034207;23;20219;-80
2023/07/15 07:17:59;;;;;;;2.40;2.20;;;29.00;42.30;;;;;;5020425;28;20200;-80
2023/07/15 07:20:26;;;;;;;2.70;2.47;;;29.10;42.20;;;;;;5019643;28;20231;-80
2023/07/15 07:22:53;;;;;;;2.95;2.50;;;29.20;42.10;;;;;;5005619;28;20206;-80
2023/07/15 07:25:21;;;;;;;3.05;2.75;;;29.20;41.90;;;;;;4998281;28;20266;-81
2023/07/15 07:27:48;;;;;;;2.97;2.60;;;29.20;41.80;;;;;;4980896;28;20722;-81
2023/07/15 07:30:16;;;;;;;2.70;2.50;;;29.30;41.70;;;;;;4996813;28;20224;-81
2023/07/15 07:32:43;;;;;;;2.40;2.20;;;29.30;41.60;;;;;;4997093;28;20566;-81
2023/07/15 07:35:11;;;;;;;2.72;2.53;;;29.40;41.50;;;;;;4997384;28;20222;-81
2023/07/15 07:37:38;;;;;;;2.72;2.53;;;29.50;41.50;;;;;;4997274;28;20200;-81
2023/07/15 07:40:06;;;;;;;2.90;2.60;;;29.50;41.30;;;;;;4997134;28;20239;-81
2023/07/15 07:42:35;;;;;;;3.47;2.55;;;29.50;41.20;;;;;;4997743;28;20205;-81
2023/07/15 07:45:01;;;;;;;3.00;2.70;;;29.60;41.20;;;;;;4999870;28;20207;-81
2023/07/15 07:47:28;;;;;;;2.60;2.40;;;29.60;41.10;;;;;;4998025;28;20211;-78
2023/07/15 07:49:55;;;;;;;2.60;2.40;;;29.70;41.10;;;;;;4996243;28;20295;-78
2023/07/15 07:52:23;;;;;;;2.75;2.40;;;29.70;41.00;;;;;;4997020;28;20204;-79
2023/07/15 07:54:50;;;;;;;2.65;2.40;;;29.70;40.90;;;;;;4997175;28;20223;-80
2023/07/15 07:57:17;;;;;;;2.63;2.42;;;29.70;40.80;;;;;;4996862;28;20203;-78
2023/07/15 07:59:45;;;;;;;2.83;2.20;;;29.80;40.80;;;;;;4996200;28;20246;-78
2023/07/15 08:02:13;;;;;;;2.78;2.55;;;29.90;40.70;;;;;;4996296;28;20574;-78
2023/07/15 08:04:39;;;;;;;2.60;2.40;;;29.80;40.50;;;;;;4998532;28;20251;-78
2023/07/15 08:07:07;;;;;;;2.90;2.40;;;29.90;40.50;;;;;;4999868;28;20204;-78
2023/07/15 08:09:33;;;;;;;3.17;2.67;;;29.90;40.40;;;;;;4999891;28;20222;-78
2023/07/15 08:12:00;;;;;;;2.63;2.42;;;30.00;40.40;;;;;;5000419;28;20220;-77
2023/07/15 08:14:27;;;;;;;2.67;2.38;;;30.00;40.30;;;;;;4983429;28;20235;-78
2023/07/15 08:16:56;;;;;;;2.65;2.38;;;30.10;40.30;;;;;;4983369;28;20231;-79
2023/07/15 08:19:23;;;;;;;2.65;2.45;;;30.10;40.20;;;;;;4999441;28;20219;-79
2023/07/15 08:21:50;;;;;;;3.05;2.58;;;30.10;40.10;;;;;;4999466;28;20238;-79
2023/07/15 08:24:17;;;;;;;2.60;2.40;;;30.10;40.10;;;;;;4999500;28;20655;-78
2023/07/15 08:26:44;;;;;;;3.30;2.40;;;30.10;40.00;;;;;;5004313;28;20187;-81
2023/07/15 08:29:11;;;;;;;2.70;2.50;;;30.10;40.00;;;;;;4992344;28;20202;-84
2023/07/15 08:31:38;;;;;;;2.65;2.45;;;30.10;40.30;;;;;;4983792;28;20577;-81
2023/07/15 08:34:07;;;;;;;3.08;2.28;;;29.90;40.50;;;;;;4984904;28;20734;-79
2023/07/15 08:36:36;;;;;;;3.83;2.83;;;29.70;41.10;;;;;;5000654;28;20571;-79
2023/07/15 08:39:03;;;;;;;3.60;2.60;;;29.50;41.30;;;;;;4999916;28;20223;-79
2023/07/15 08:41:31;;;;;;;4.05;2.70;;;29.40;42.00;;;;;;5072652;23;20238;-82
2023/07/15 08:43:57;;;;;;;4.25;3.20;;;29.20;42.60;;;;;;5020408;28;20246;-82
2023/07/15 08:46:26;;;;;;;2.75;2.53;;;29.20;42.20;;;;;;5026750;28;20179;-82
2023/07/15 08:48:53;;;;;;;6.95;4.80;;;29.10;42.40;;;;;;5008868;28;20294;-82
2023/07/15 08:51:25;;;;;;;48.67;32.13;;;29.10;42.40;;;;;;5019596;28;20273;-82
2023/07/15 08:53:52;;;;;;;92.80;62.53;;;29.20;42.60;;;;;;5020174;28;20649;-82
2023/07/15 08:56:19;;;;;;;177.43;127.25;;;29.30;43.20;;;;;;5018502;28;20200;-82
2023/07/15 08:58:46;;;;;;;166.77;118.00;;;29.40;44.40;;;;;;5020108;28;20581;-82
2023/07/15 09:01:13;;;;;;;62.63;45.25;;;29.40;43.20;;;;;;5020262;28;20253;-83
2023/07/15 09:03:40;;;;;;;95.05;65.32;;;29.60;42.30;;;;;;5020915;28;20210;-82
2023/07/15 09:06:08;;;;;;;50.78;36.40;;;29.70;43.00;;;;;;5003854;28;20227;-82
2023/07/15 09:08:36;;;;;;;40.53;26.98;;;29.90;42.10;;;;;;5020091;28;20227;-82
2023/07/15 09:11:05;;;;;;;24.00;16.55;;;30.10;41.40;;;;;;5021033;28;20232;-83
2023/07/15 09:13:34;;;;;;;17.67;12.50;;;30.20;40.70;;;;;;5021013;28;20732;-83
2023/07/15 09:16:03;;;;;;;14.23;10.52;;;30.30;40.10;;;;;;5126129;23;20228;-80
2023/07/15 09:18:30;;;;;;;15.60;8.60;;;30.40;40.00;;;;;;4981773;28;20644;-79
2023/07/15 09:21:08;;;;;;;16.02;9.30;;;30.50;39.80;;;;;;4998001;28;20220;-79
2023/07/15 09:23:37;;;;;;;7.47;5.40;;;30.50;40.00;;;;;;4997656;28;20228;-80
2023/07/15 09:26:05;;;;;;;5.40;4.75;;;30.60;39.40;;;;;;4999809;28;20206;-79
2023/07/15 09:28:32;;;;;;;5.82;4.35;;;30.60;39.20;;;;;;4983228;28;20232;-80
2023/07/15 09:31:00;;;;;;;3.78;3.38;;;30.70;38.90;;;;;;4998129;28;20220;-80
2023/07/15 09:33:29;;;;;;;4.65;3.50;;;30.70;38.90;;;;;;4998750;28;20664;-80
2023/07/15 09:35:56;;;;;;;4.10;3.03;;;30.70;38.70;;;;;;4999416;28;20205;-79
2023/07/15 09:38:23;;;;;;;3.42;2.92;;;30.80;38.60;;;;;;4998287;28;20216;-80
2023/07/15 09:40:51;;;;;;;3.53;2.83;;;30.70;38.10;;;;;;4998462;28;20212;-80
2023/07/15 09:43:18;;;;;;;5.38;3.08;;;30.70;37.50;;;;;;4998541;28;20208;-80
2023/07/15 09:45:46;;;;;;;4.20;3.17;;;30.80;38.20;;;;;;4998639;28;20432;-80
2023/07/15 09:48:16;;;;;;;3.70;2.90;;;30.70;38.00;;;;;;4998576;28;20229;-80
2023/07/15 09:50:43;;;;;;;2.70;2.50;;;30.70;37.80;;;;;;4997781;28;20212;-80
2023/07/15 09:53:10;;;;;;;3.33;2.60;;;30.70;37.80;;;;;;4995993;28;20197;-80
2023/07/15 09:55:38;;;;;;;3.70;2.40;;;30.70;38.10;;;;;;4998974;28;20208;-80
2023/07/15 09:58:13;;;;;;;2.60;2.35;;;30.70;37.90;;;;;;4999339;28;20299;-80
2023/07/15 10:00:43;;;;;;;2.50;2.30;;;30.60;37.70;;;;;;5001276;28;20282;-80
2023/07/15 10:03:15;;;;;;;2.38;2.20;;;30.70;37.60;;;;;;4995863;28;20235;-80
2023/07/15 10:05:42;;;;;;;2.58;2.38;;;30.70;37.50;;;;;;4994698;28;20196;-80
2023/07/15 10:08:09;;;;;;;2.75;2.53;;;30.60;37.60;;;;;;4995629;28;20292;-80
2023/07/15 10:10:36;;;;;;;2.63;2.42;;;30.70;37.70;;;;;;4995183;28;20225;-80
2023/07/15 10:13:03;;;;;;;2.70;2.50;;;30.60;37.80;;;;;;4994647;28;20383;-80
2023/07/15 10:15:31;;;;;;;2.75;2.55;;;30.60;38.20;;;;;;4996084;28;20209;-79
2023/07/15 10:17:59;;;;;;;3.63;2.97;;;30.60;38.50;;;;;;4996593;28;20208;-79
2023/07/15 10:20:31;;;;;;;2.40;2.20;;;30.60;38.60;;;;;;4996168;28;20229;-79
2023/07/15 10:22:59;;;;;;;2.45;2.25;;;30.50;38.40;;;;;;4994803;28;20234;-79
2023/07/15 10:25:26;;;;;;;2.55;2.35;;;30.50;38.40;;;;;;4979755;28;20208;-79
2023/07/15 10:28:09;;;;;;;2.63;2.42;;;30.50;38.30;;;;;;4994375;28;20200;-79
2023/07/15 10:30:38;;;;;;;2.75;2.53;;;30.40;38.60;;;;;;4995799;28;20224;-80
2023/07/15 10:33:13;;;;;;;2.90;2.60;;;30.40;38.40;;;;;;4994436;28;20655;-80
2023/07/15 10:35:50;;;;;;;3.25;2.60;;;30.30;38.70;;;;;;4998721;28;20220;-80
2023/07/15 10:38:23;;;;;;;2.75;2.55;;;30.30;38.90;;;;;;4995976;28;20207;-79
2023/07/15 10:40:50;;;;;;;2.88;2.58;;;30.30;39.10;;;;;;5011677;28;20311;-79
2023/07/15 10:43:18;;;;;;;2.60;2.40;;;30.20;38.80;;;;;;5010997;28;20232;-80
2023/07/15 10:45:53;;;;;;;3.15;2.35;;;30.20;38.80;;;;;;5017448;28;20204;-79
2023/07/15 10:48:20;;;;;;;2.88;2.30;;;30.10;38.60;;;;;;5007676;28;20529;-79
2023/07/15 10:50:48;;;;;;;2.67;2.47;;;30.10;38.60;;;;;;4999710;28;20213;-79
2023/07/15 10:53:22;;;;;;;2.60;2.40;;;30.00;38.60;;;;;;4999289;28;20200;-79
2023/07/15 10:55:58;;;;;;;3.35;2.20;;;30.00;38.70;;;;;;4994075;28;20656;-80
2023/07/15 10:58:25;;;;;;;3.30;2.30;;;29.90;38.80;;;;;;4994974;28;20211;-80
2023/07/15 11:00:58;;;;;;;2.53;2.20;;;29.90;38.90;;;;;;4994569;28;20231;-80
2023/07/15 11:03:25;;;;;;;2.90;2.30;;;29.90;39.40;;;;;;4993660;28;20201;-80
2023/07/15 11:05:52;;;;;;;2.60;2.40;;;29.90;39.50;;;;;;4995149;28;20268;-80
2023/07/15 11:08:20;;;;;;;2.63;2.35;;;29.90;39.70;;;;;;4995157;28;20192;-80
2023/07/15 11:10:49;;;;;;;2.35;2.15;;;29.90;39.80;;;;;;4999181;28;20687;-79
2023/07/15 11:13:17;;;;;;;2.60;2.40;;;29.90;39.60;;;;;;4983240;28;20260;-79
2023/07/15 11:15:45;;;;;;;2.50;2.30;;;29.90;39.60;;;;;;4999371;28;20244;-79
2023/07/15 11:18:17;;;;;;;2.60;2.40;;;29.90;39.50;;;;;;5000361;28;20232;-80
2023/07/15 11:20:45;;;;;;;2.55;2.22;;;29.90;39.10;;;;;;5000297;28;20248;-79
2023/07/15 11:23:12;;;;;;;3.00;2.65;;;29.90;39.00;;;;;;5000415;28;20220;-79
2023/07/15 11:25:38;;;;;;;2.80;2.30;;;29.90;38.90;;;;;;4999053;28;20212;-79
2023/07/15 11:28:06;;;;;;;2.70;2.50;;;29.90;38.90;;;;;;4999449;28;20211;-81
2023/07/15 11:30:36;;;;;;;2.60;2.40;;;29.90;39.00;;;;;;4998788;28;20223;-80
2023/07/15 11:33:04;;;;;;;2.35;2.15;;;29.90;38.90;;;;;;4998406;28;20349;-80
2023/07/15 11:35:33;;;;;;;2.85;2.55;;;29.80;38.80;;;;;;4999081;28;20225;-80
2023/07/15 11:38:00;;;;;;;2.58;2.38;;;29.90;38.90;;;;;;4983317;28;20224;-80
2023/07/15 11:40:27;;;;;;;2.60;2.35;;;29.90;39.00;;;;;;5002227;28;20228;-80
2023/07/15 11:42:55;;;;;;;2.50;2.30;;;29.90;38.90;;;;;;5001873;28;20209;-79
2023/07/15 11:45:25;;;;;;;2.45;2.25;;;29.90;38.80;;;;;;5001576;28;20200;-80
2023/07/15 11:47:55;;;;;;;2.70;2.50;;;29.80;39.50;;;;;;5002679;28;20201;-79
2023/07/15 11:50:26;;;;;;;2.60;2.40;;;29.90;39.30;;;;;;5002035;28;20208;-80
2023/07/15 11:52:55;;;;;;;3.15;2.55;;;29.80;39.50;;;;;;5001684;28;20224;-80
2023/07/15 11:55:25;;;;;;;2.40;2.20;;;29.90;39.10;;;;;;5018470;23;20649;-81
2023/07/15 11:57:53;;;;;;;2.50;2.30;;;29.80;39.00;;;;;;5005124;28;20651;-83
2023/07/15 12:00:27;;;;;;;2.78;2.30;;;29.80;38.90;;;;;;5005197;28;20228;-82
2023/07/15 12:02:54;;;;;;;2.83;2.33;;;29.80;39.10;;;;;;5006362;28;20563;-82
2023/07/15 12:05:21;;;;;;;2.50;2.30;;;29.80;39.30;;;;;;5005726;28;20291;-82
2023/07/15 12:07:49;;;;;;;2.97;2.67;;;29.70;39.40;;;;;;5000831;28;20624;-83
2023/07/15 12:10:18;;;;;;;2.92;2.45;;;29.70;39.50;;;;;;5000732;28;20263;-82
2023/07/15 12:12:45;;;;;;;3.15;2.33;;;29.70;39.70;;;;;;5002218;28;20193;-83
2023/07/15 12:15:14;;;;;;;2.28;2.10;;;29.70;39.80;;;;;;5004007;28;20252;-82
2023/07/15 12:17:42;;;;;;;2.58;2.38;;;29.60;39.80;;;;;;5002275;28;20568;-82
2023/07/15 12:20:10;;;;;;;3.05;2.20;;;29.60;39.80;;;;;;5000550;28;20622;-82
2023/07/15 12:22:37;;;;;;;2.80;2.10;;;29.50;40.20;;;;;;4999592;28;20197;-82
2023/07/15 12:25:04;;;;;;;3.33;2.10;;;29.50;40.10;;;;;;4997704;28;20216;-82
2023/07/15 12:27:33;;;;;;;2.60;2.40;;;29.40;40.10;;;;;;5000695;28;20281;-82
2023/07/15 12:30:00;;;;;;;3.95;2.35;;;29.40;40.50;;;;;;5004349;28;20209;-82
2023/07/15 12:32:27;;;;;;;3.03;2.10;;;29.40;40.60;;;;;;5004769;28;20208;-83
2023/07/15 12:34:54;;;;;;;2.65;2.45;;;29.40;40.50;;;;;;5010215;28;20204;-82
2023/07/15 12:37:21;;;;;;;2.40;2.20;;;29.30;40.50;;;;;;4996868;28;20207;-81
2023/07/15 12:39:48;;;;;;;2.50;2.30;;;29.30;40.80;;;;;;4996629;28;20687;-82
2023/07/15 12:42:15;;;;;;;3.72;2.28;;;29.30;40.70;;;;;;4998266;28;20201;-82
2023/07/15 12:44:44;;;;;;;3.08;2.20;;;29.30;40.80;;;;;;4999402;28;20606;-82
2023/07/15 12:47:11;;;;;;;2.50;2.30;;;29.20;40.80;;;;;;5000255;28;20204;-82
2023/07/15 12:49:38;;;;;;;2.90;2.70;;;29.20;40.80;;;;;;5000473;28;20674;-82